createdAt,value
2022-10-01T00:05:12.778Z,38.5
2022-10-01T00:10:43.258Z,38.5
2022-10-01T00:16:12.877Z,38.5
2022-10-01T00:21:43.254Z,38.5
2022-10-01T00:27:13.727Z,38.5
2022-10-01T00:32:43.244Z,38.5
2022-10-01T00:38:13.703Z,38.5
2022-10-01T00:43:44.189Z,38.5
2022-10-01T00:49:13.678Z,38.5
2022-10-01T00:54:44.148Z,38.5
2022-10-01T01:00:14.630Z,38.5
2022-10-01T01:05:44.150Z,38.5
2022-10-01T01:11:14.625Z,38.5
2022-10-01T01:16:45.089Z,38.5
2022-10-01T01:22:14.608Z,39
2022-10-01T01:27:45.181Z,39
2022-10-01T01:33:14.568Z,38.5
2022-10-01T01:38:44.089Z,38.5
2022-10-01T01:44:14.573Z,39
2022-10-01T01:49:44.090Z,39
2022-10-01T01:55:14.613Z,39
2022-10-01T02:00:45.057Z,39
2022-10-01T02:06:15.531Z,39
2022-10-01T02:11:46.037Z,39
2022-10-01T02:17:15.509Z,39
2022-10-01T02:22:45.981Z,39
2022-10-01T02:28:16.565Z,39
2022-10-01T02:33:45.943Z,39
2022-10-01T02:39:16.443Z,39
2022-10-01T02:44:46.922Z,39
2022-10-01T02:50:16.384Z,39
2022-10-01T02:55:46.885Z,39
2022-10-01T03:01:17.425Z,39
2022-10-01T03:06:46.869Z,39
2022-10-01T03:12:17.339Z,39
2022-10-01T03:17:46.857Z,39
2022-10-01T03:23:17.294Z,39
2022-10-01T03:28:47.764Z,39
2022-10-01T03:34:18.280Z,39
2022-10-01T03:39:47.745Z,39
2022-10-01T03:45:18.216Z,39
2022-10-01T03:50:47.733Z,39
2022-10-01T03:56:18.186Z,39
2022-10-01T04:01:48.844Z,39.5
2022-10-01T04:07:18.244Z,39.5
2022-10-01T04:12:48.653Z,39.5
2022-10-01T04:18:19.126Z,39.5
2022-10-01T04:23:48.638Z,39.5
2022-10-01T04:29:19.110Z,39.5
2022-10-01T04:34:48.602Z,39.5
2022-10-01T04:40:19.112Z,40
2022-10-01T04:45:49.580Z,40
2022-10-01T04:51:19.066Z,40
2022-10-01T04:56:49.557Z,40
2022-10-01T05:02:20.126Z,40
2022-10-01T05:07:49.506Z,40
2022-10-01T05:13:20.030Z,40
2022-10-01T05:18:49.651Z,40.5
2022-10-01T05:24:20.130Z,40.5
2022-10-01T05:29:50.611Z,41
2022-10-01T05:35:20.094Z,40.5
2022-10-01T05:40:50.550Z,41
2022-10-01T05:46:20.114Z,40.5
2022-10-01T05:51:50.530Z,40.5
2022-10-01T05:57:21.007Z,40.5
2022-10-01T06:02:51.777Z,40.5
2022-10-01T06:08:20.975Z,40.5
2022-10-01T06:13:51.452Z,40.5
2022-10-01T06:19:21.035Z,41
2022-10-01T06:24:56.028Z,42.5
2022-10-01T06:30:21.926Z,42.5
2022-10-01T06:35:52.556Z,43
2022-10-01T06:41:22.995Z,43
2022-10-01T06:46:53.474Z,42.5
2022-10-01T06:52:24.130Z,42
2022-10-01T06:57:54.806Z,42
2022-10-01T07:03:25.040Z,43
2022-10-01T07:08:54.554Z,42.5
2022-10-01T07:14:24.989Z,42.5
2022-10-01T07:19:55.493Z,42.5
2022-10-01T07:25:24.993Z,43.5
2022-10-01T07:30:55.450Z,43
2022-10-01T07:36:24.922Z,42.5
2022-10-01T07:41:55.517Z,42
2022-10-01T07:47:25.878Z,42
2022-10-01T07:52:55.372Z,41.5
2022-10-01T07:58:25.866Z,41.5
2022-10-01T08:03:56.301Z,42.5
2022-10-01T08:09:25.806Z,43.5
2022-10-01T08:14:56.315Z,44.5
2022-10-01T08:20:26.750Z,44.5
2022-10-01T08:25:56.261Z,44.5
2022-10-01T08:31:26.769Z,44.5
2022-10-01T08:36:56.384Z,44.5
2022-10-01T08:42:26.698Z,44.5
2022-10-01T08:47:57.195Z,44.5
2022-10-01T08:53:26.687Z,44.5
2022-10-01T08:58:56.157Z,44
2022-10-01T09:04:26.724Z,44
2022-10-01T09:09:57.115Z,44
2022-10-01T09:15:26.630Z,44.5
2022-10-01T09:20:57.105Z,44
2022-10-01T09:26:27.701Z,44.5
2022-10-01T09:31:57.269Z,45
2022-10-01T09:37:27.697Z,44.5
2022-10-01T09:42:58.120Z,44.5
2022-10-01T09:48:27.648Z,44.5
2022-10-01T09:53:58.124Z,44.5
2022-10-01T09:59:28.593Z,44
2022-10-01T10:04:58.089Z,44.5
2022-10-01T10:10:28.691Z,44.5
2022-10-01T10:15:59.287Z,44
2022-10-01T10:21:28.647Z,44.5
2022-10-01T10:26:59.146Z,44
2022-10-01T10:32:29.605Z,43.5
2022-10-01T10:37:59.092Z,43
2022-10-01T10:43:29.584Z,43
2022-10-01T10:49:00.122Z,43
2022-10-01T10:54:29.558Z,43
2022-10-01T11:00:00.141Z,43.5
2022-10-01T11:05:29.529Z,44
2022-10-01T11:11:00.010Z,43.5
2022-10-01T11:16:30.487Z,43.5
2022-10-01T11:21:59.954Z,43.5
2022-10-01T11:27:30.543Z,43.5
2022-10-01T11:33:01.046Z,43.5
2022-10-01T11:38:31.528Z,43
2022-10-01T11:44:00.994Z,43
2022-10-01T11:49:31.472Z,43
2022-10-01T11:55:01.943Z,43
2022-10-01T12:00:31.414Z,42.5
2022-10-01T12:06:01.934Z,42.5
2022-10-01T12:11:32.392Z,43
2022-10-01T12:17:01.862Z,43
2022-10-01T12:22:32.388Z,43
2022-10-01T12:28:01.927Z,43
2022-10-01T12:33:32.320Z,43
2022-10-01T12:39:01.863Z,43
2022-10-01T12:44:32.406Z,43
2022-10-01T12:50:02.869Z,42.5
2022-10-01T12:55:32.369Z,42.5
2022-10-01T13:01:02.955Z,42.5
2022-10-01T13:06:33.704Z,43
2022-10-01T13:12:02.848Z,43
2022-10-01T13:17:34.929Z,43
2022-10-01T13:23:02.790Z,43.5
2022-10-01T13:28:33.304Z,43
2022-10-01T13:34:03.731Z,43
2022-10-01T13:39:38.877Z,42.5
2022-10-01T13:45:03.756Z,43
2022-10-01T13:50:34.191Z,43
2022-10-01T13:56:03.666Z,43
2022-10-01T14:01:34.307Z,43
2022-10-01T14:07:04.640Z,43
2022-10-01T14:12:34.104Z,42.5
2022-10-01T14:18:04.759Z,42.5
2022-10-01T14:23:35.216Z,43.5
2022-10-01T14:29:04.700Z,43.5
2022-10-01T14:34:35.206Z,43.5
2022-10-01T14:40:05.677Z,43.5
2022-10-01T14:45:35.165Z,44
2022-10-01T14:51:05.653Z,43.5
2022-10-01T14:56:36.532Z,43.5
2022-10-01T15:02:05.597Z,44
2022-10-01T15:07:36.091Z,44
2022-10-01T15:13:06.539Z,44
2022-10-01T15:18:36.040Z,44
2022-10-01T15:24:06.543Z,44
2022-10-01T15:29:37.019Z,44
2022-10-01T15:35:06.485Z,44
2022-10-01T15:40:36.972Z,44
2022-10-01T15:46:07.497Z,44.5
2022-10-01T15:51:36.943Z,44.5
2022-10-01T15:57:07.438Z,44.5
2022-10-01T16:02:37.871Z,44.5
2022-10-01T16:08:08.459Z,44.5
2022-10-01T16:13:38.961Z,44.5
2022-10-01T16:19:08.514Z,45
2022-10-01T16:24:38.038Z,45
2022-10-01T16:30:08.514Z,45
2022-10-01T16:35:37.974Z,45
2022-10-01T16:41:08.443Z,45
2022-10-01T16:46:38.949Z,45
2022-10-01T16:52:08.409Z,45
2022-10-01T16:57:38.896Z,45
2022-10-01T17:03:09.494Z,45
2022-10-01T17:08:38.886Z,45
2022-10-01T17:14:09.348Z,45
2022-10-01T17:19:39.845Z,45
2022-10-01T17:25:09.299Z,45
2022-10-01T17:30:39.791Z,45
2022-10-01T17:36:10.295Z,45.5
2022-10-01T17:41:39.740Z,45
2022-10-01T17:47:10.206Z,45
2022-10-01T17:52:40.708Z,45
2022-10-01T17:58:10.184Z,45
2022-10-01T18:03:40.665Z,45
2022-10-01T18:09:10.187Z,45
2022-10-01T18:14:40.627Z,45
2022-10-01T18:20:11.078Z,44.5
2022-10-01T18:25:40.592Z,44.5
2022-10-01T18:31:11.120Z,44.5
2022-10-01T18:36:41.518Z,44.5
2022-10-01T18:42:11.031Z,44.5
2022-10-01T18:47:41.479Z,44.5
2022-10-01T18:53:11.960Z,44.5
2022-10-01T18:58:41.472Z,44.5
2022-10-01T19:04:11.913Z,44.5
2022-10-01T19:09:41.431Z,44.5
2022-10-01T19:15:11.904Z,44.5
2022-10-01T19:20:45.925Z,44.5
2022-10-01T19:26:11.855Z,44.5
2022-10-01T19:31:42.431Z,45
2022-10-01T19:37:12.808Z,44.5
2022-10-01T19:42:42.302Z,44.5
2022-10-01T19:48:12.796Z,44.5
2022-10-01T19:53:43.257Z,44.5
2022-10-01T19:59:13.717Z,44.5
2022-10-01T20:04:42.253Z,44.5
2022-10-01T20:10:12.693Z,44.5
2022-10-01T20:15:43.325Z,44.5
2022-10-01T20:21:12.866Z,44.5
2022-10-01T20:26:43.301Z,44.5
2022-10-01T20:32:13.791Z,44.5
2022-10-01T20:37:44.276Z,44.5
2022-10-01T20:43:13.760Z,44
2022-10-01T20:48:44.259Z,44
2022-10-01T20:54:14.729Z,44
2022-10-01T20:59:44.343Z,44
2022-10-01T21:05:14.823Z,44
2022-10-01T21:10:44.337Z,44.5
2022-10-01T21:16:14.883Z,44.5
2022-10-01T21:21:45.276Z,44
2022-10-01T21:27:15.768Z,44.5
2022-10-01T21:32:45.231Z,44
2022-10-01T21:38:15.718Z,44
2022-10-01T21:43:45.228Z,44
2022-10-01T21:49:15.681Z,44
2022-10-01T21:54:46.156Z,44
2022-10-01T22:00:15.671Z,44
2022-10-01T22:05:46.131Z,44
2022-10-01T22:11:15.620Z,44
2022-10-01T22:16:46.208Z,44
2022-10-01T22:22:16.634Z,44
2022-10-01T22:27:46.162Z,44
2022-10-01T22:33:16.666Z,44
2022-10-01T22:38:47.082Z,44
2022-10-01T22:44:16.579Z,44
2022-10-01T22:49:47.066Z,44
2022-10-01T22:55:17.513Z,44
2022-10-01T23:00:47.060Z,44
2022-10-01T23:06:17.536Z,44
2022-10-01T23:11:47.991Z,44
2022-10-01T23:17:17.457Z,44
2022-10-01T23:22:47.965Z,44
2022-10-01T23:28:18.534Z,44.5
2022-10-01T23:33:48.914Z,44
2022-10-01T23:39:19.503Z,44
2022-10-01T23:44:49.125Z,44
2022-10-01T23:50:19.620Z,44
2022-10-01T23:55:50.119Z,44
